sensor_id;sensor_type;location;lat;lon;timestamp;pressure;altitude;pressure_sealevel;temperature;humidity
63691;BME280;49837;57.280;27.070;2023-04-20T00:00:39;101460.95;;;4.27;63.35
63691;BME280;49837;57.280;27.070;2023-04-20T00:01:40;101462.88;;;4.27;63.57
63691;BME280;49837;57.280;27.070;2023-04-20T00:02:40;101465.03;;;4.23;63.65
63691;BME280;49837;57.280;27.070;2023-04-20T00:03:40;101458.39;;;4.15;64.21
63691;BME280;49837;57.280;27.070;2023-04-20T00:04:41;101458.77;;;4.15;63.87
63691;BME280;49837;57.280;27.070;2023-04-20T00:05:41;101461.75;;;4.2;63.98
63691;BME280;49837;57.280;27.070;2023-04-20T00:06:41;101461.16;;;4.29;63.6
63691;BME280;49837;57.280;27.070;2023-04-20T00:07:41;101464.55;;;4.3;63.53
63691;BME280;49837;57.280;27.070;2023-04-20T00:08:42;101463.53;;;4.27;63.62
63691;BME280;49837;57.280;27.070;2023-04-20T00:09:42;101463.0;;;4.29;63.17
63691;BME280;49837;57.280;27.070;2023-04-20T00:10:43;101463.7;;;4.33;63.11
63691;BME280;49837;57.280;27.070;2023-04-20T00:11:43;101463.77;;;4.31;63.21
63691;BME280;49837;57.280;27.070;2023-04-20T00:12:43;101462.23;;;4.34;62.84
63691;BME280;49837;57.280;27.070;2023-04-20T00:13:44;101460.73;;;4.34;62.59
63691;BME280;49837;57.280;27.070;2023-04-20T00:14:44;101458.7;;;4.31;62.84
63691;BME280;49837;57.280;27.070;2023-04-20T00:15:44;101460.28;;;4.25;62.8
63691;BME280;49837;57.280;27.070;2023-04-20T00:16:45;101459.23;;;4.22;62.62
63691;BME280;49837;57.280;27.070;2023-04-20T00:17:45;101458.2;;;4.2;62.7
63691;BME280;49837;57.280;27.070;2023-04-20T00:18:46;101458.11;;;4.21;62.59
63691;BME280;49837;57.280;27.070;2023-04-20T00:19:46;101459.01;;;4.19;63.11
63691;BME280;49837;57.280;27.070;2023-04-20T00:20:46;101458.76;;;4.2;62.88
63691;BME280;49837;57.280;27.070;2023-04-20T00:21:47;101461.88;;;4.22;63.35
63691;BME280;49837;57.280;27.070;2023-04-20T00:22:47;101460.68;;;4.2;63.03
63691;BME280;49837;57.280;27.070;2023-04-20T00:23:47;101459.78;;;4.1;63.44
63691;BME280;49837;57.280;27.070;2023-04-20T00:24:48;101461.12;;;4.07;63.34
63691;BME280;49837;57.280;27.070;2023-04-20T00:25:48;101460.42;;;4.1;62.98
63691;BME280;49837;57.280;27.070;2023-04-20T00:26:48;101459.66;;;4.14;62.79
63691;BME280;49837;57.280;27.070;2023-04-20T00:27:49;101456.05;;;4.14;62.75
63691;BME280;49837;57.280;27.070;2023-04-20T00:28:50;101455.34;;;4.11;62.91
63691;BME280;49837;57.280;27.070;2023-04-20T00:29:49;101455.63;;;4.09;62.92
63691;BME280;49837;57.280;27.070;2023-04-20T00:30:50;101458.94;;;4.15;62.45
63691;BME280;49837;57.280;27.070;2023-04-20T00:31:50;101452.92;;;4.14;62.62
63691;BME280;49837;57.280;27.070;2023-04-20T00:32:51;101454.94;;;4.07;62.85
63691;BME280;49837;57.280;27.070;2023-04-20T00:33:51;101451.42;;;4.0;63.25
63691;BME280;49837;57.280;27.070;2023-04-20T00:34:51;101452.84;;;4.01;63.1
63691;BME280;49837;57.280;27.070;2023-04-20T00:35:52;101453.64;;;3.94;63.46
63691;BME280;49837;57.280;27.070;2023-04-20T00:36:52;101452.57;;;4.0;62.94
63691;BME280;49837;57.280;27.070;2023-04-20T00:37:52;101453.56;;;4.0;63.03
63691;BME280;49837;57.280;27.070;2023-04-20T00:38:53;101456.31;;;3.97;63.71
63691;BME280;49837;57.280;27.070;2023-04-20T00:39:54;101456.63;;;3.92;63.58
63691;BME280;49837;57.280;27.070;2023-04-20T00:40:57;101464.35;;;3.9;64.12
63691;BME280;49837;57.280;27.070;2023-04-20T00:41:54;101457.7;;;3.82;63.86
63691;BME280;49837;57.280;27.070;2023-04-20T00:44:00;101462.34;;;3.92;63.79
63691;BME280;49837;57.280;27.070;2023-04-20T00:45:00;101462.23;;;3.91;63.54
63691;BME280;49837;57.280;27.070;2023-04-20T00:46:00;101463.07;;;3.96;63.4
63691;BME280;49837;57.280;27.070;2023-04-20T00:47:01;101461.99;;;3.96;63.19
63691;BME280;49837;57.280;27.070;2023-04-20T00:48:01;101464.41;;;3.97;63.08
63691;BME280;49837;57.280;27.070;2023-04-20T00:49:02;101463.83;;;3.97;63.12
63691;BME280;49837;57.280;27.070;2023-04-20T00:50:02;101465.59;;;3.99;62.83
63691;BME280;49837;57.280;27.070;2023-04-20T00:51:03;101464.61;;;3.99;62.78
63691;BME280;49837;57.280;27.070;2023-04-20T00:52:03;101464.16;;;3.96;62.83
63691;BME280;49837;57.280;27.070;2023-04-20T00:53:03;101466.23;;;3.98;62.86
63691;BME280;49837;57.280;27.070;2023-04-20T00:54:04;101464.48;;;3.97;62.89
63691;BME280;49837;57.280;27.070;2023-04-20T00:55:05;101466.86;;;3.9;63.26
63691;BME280;49837;57.280;27.070;2023-04-20T00:56:05;101465.61;;;3.95;62.88
63691;BME280;49837;57.280;27.070;2023-04-20T00:57:04;101464.72;;;3.96;62.99
63691;BME280;49837;57.280;27.070;2023-04-20T00:58:05;101465.41;;;3.92;63.25
63691;BME280;49837;57.280;27.070;2023-04-20T00:59:05;101464.42;;;3.84;63.61
63691;BME280;49837;57.280;27.070;2023-04-20T01:00:07;101468.58;;;3.85;63.28
63691;BME280;49837;57.280;27.070;2023-04-20T01:01:06;101465.29;;;3.86;63.46
63691;BME280;49837;57.280;27.070;2023-04-20T01:02:07;101465.88;;;3.87;63.27
63691;BME280;49837;57.280;27.070;2023-04-20T01:03:07;101466.28;;;3.78;63.67
63691;BME280;49837;57.280;27.070;2023-04-20T01:04:08;101465.42;;;3.71;63.84
63691;BME280;49837;57.280;27.070;2023-04-20T01:05:08;101466.7;;;3.73;64.03
63691;BME280;49837;57.280;27.070;2023-04-20T01:06:08;101464.88;;;3.78;63.69
63691;BME280;49837;57.280;27.070;2023-04-20T01:07:08;101465.11;;;3.77;63.85
63691;BME280;49837;57.280;27.070;2023-04-20T01:08:08;101461.58;;;3.82;63.38
63691;BME280;49837;57.280;27.070;2023-04-20T01:09:09;101464.3;;;3.86;63.37
63691;BME280;49837;57.280;27.070;2023-04-20T01:10:09;101460.25;;;3.86;63.08
63691;BME280;49837;57.280;27.070;2023-04-20T01:11:09;101459.01;;;3.86;62.84
63691;BME280;49837;57.280;27.070;2023-04-20T01:12:10;101458.65;;;3.8;63.69
63691;BME280;49837;57.280;27.070;2023-04-20T01:13:10;101456.22;;;3.74;64.05
63691;BME280;49837;57.280;27.070;2023-04-20T01:14:10;101456.57;;;3.7;63.77
63691;BME280;49837;57.280;27.070;2023-04-20T01:15:11;101455.72;;;3.74;63.84
63691;BME280;49837;57.280;27.070;2023-04-20T01:16:12;101455.79;;;3.76;63.7
63691;BME280;49837;57.280;27.070;2023-04-20T01:17:12;101450.38;;;3.78;63.62
63691;BME280;49837;57.280;27.070;2023-04-20T01:18:12;101451.62;;;3.79;63.75
63691;BME280;49837;57.280;27.070;2023-04-20T01:19:12;101452.01;;;3.78;63.68
63691;BME280;49837;57.280;27.070;2023-04-20T01:20:13;101452.05;;;3.79;63.39
63691;BME280;49837;57.280;27.070;2023-04-20T01:21:14;101446.98;;;3.82;63.29
63691;BME280;49837;57.280;27.070;2023-04-20T01:22:17;101455.35;;;3.79;63.88
63691;BME280;49837;57.280;27.070;2023-04-20T01:23:15;101450.26;;;3.77;63.63
63691;BME280;49837;57.280;27.070;2023-04-20T01:24:15;101452.08;;;3.72;63.95
63691;BME280;49837;57.280;27.070;2023-04-20T01:25:16;101443.35;;;3.69;63.44
63691;BME280;49837;57.280;27.070;2023-04-20T01:26:17;101448.32;;;3.7;63.55
63691;BME280;49837;57.280;27.070;2023-04-20T01:27:16;101449.14;;;3.7;63.46
63691;BME280;49837;57.280;27.070;2023-04-20T01:28:17;101448.2;;;3.72;63.43
63691;BME280;49837;57.280;27.070;2023-04-20T01:29:17;101446.41;;;3.73;63.45
63691;BME280;49837;57.280;27.070;2023-04-20T01:30:17;101446.16;;;3.73;63.49
63691;BME280;49837;57.280;27.070;2023-04-20T01:31:18;101447.64;;;3.73;63.32
63691;BME280;49837;57.280;27.070;2023-04-20T01:32:18;101447.06;;;3.69;63.28
63691;BME280;49837;57.280;27.070;2023-04-20T01:33:18;101447.11;;;3.67;63.27
63691;BME280;49837;57.280;27.070;2023-04-20T01:34:19;101443.14;;;3.67;63.43
63691;BME280;49837;57.280;27.070;2023-04-20T01:35:19;101444.19;;;3.69;63.32
63691;BME280;49837;57.280;27.070;2023-04-20T01:36:19;101442.66;;;3.73;62.95
63691;BME280;49837;57.280;27.070;2023-04-20T01:37:20;101440.38;;;3.74;63.05
63691;BME280;49837;57.280;27.070;2023-04-20T01:38:21;101439.18;;;3.72;62.73
63691;BME280;49837;57.280;27.070;2023-04-20T01:39:20;101437.67;;;3.71;63.29
63691;BME280;49837;57.280;27.070;2023-04-20T01:40:21;101440.12;;;3.74;62.97
63691;BME280;49837;57.280;27.070;2023-04-20T01:41:21;101444.22;;;3.71;63.02
63691;BME280;49837;57.280;27.070;2023-04-20T01:42:22;101443.44;;;3.65;63.48
63691;BME280;49837;57.280;27.070;2023-04-20T01:43:23;101442.82;;;3.67;63.26
63691;BME280;49837;57.280;27.070;2023-04-20T01:44:22;101446.82;;;3.65;63.37
63691;BME280;49837;57.280;27.070;2023-04-20T01:45:23;101443.52;;;3.65;63.41
63691;BME280;49837;57.280;27.070;2023-04-20T01:46:23;101446.14;;;3.64;63.39
63691;BME280;49837;57.280;27.070;2023-04-20T01:47:24;101441.31;;;3.66;63.42
63691;BME280;49837;57.280;27.070;2023-04-20T01:48:24;101445.93;;;3.66;63.35
63691;BME280;49837;57.280;27.070;2023-04-20T01:49:24;101445.88;;;3.67;63.28
63691;BME280;49837;57.280;27.070;2023-04-20T01:50:24;101443.34;;;3.63;63.42
63691;BME280;49837;57.280;27.070;2023-04-20T01:51:25;101442.37;;;3.61;62.85
63691;BME280;49837;57.280;27.070;2023-04-20T01:52:25;101446.06;;;3.59;63.25
63691;BME280;49837;57.280;27.070;2023-04-20T01:53:26;101445.27;;;3.58;63.48
63691;BME280;49837;57.280;27.070;2023-04-20T01:54:26;101445.48;;;3.55;63.69
63691;BME280;49837;57.280;27.070;2023-04-20T01:55:26;101448.6;;;3.5;63.77
63691;BME280;49837;57.280;27.070;2023-04-20T01:56:27;101446.76;;;3.45;63.83
63691;BME280;49837;57.280;27.070;2023-04-20T01:57:27;101444.66;;;3.47;63.84
63691;BME280;49837;57.280;27.070;2023-04-20T01:58:27;101446.67;;;3.45;63.88
63691;BME280;49837;57.280;27.070;2023-04-20T01:59:28;101447.34;;;3.45;63.87
63691;BME280;49837;57.280;27.070;2023-04-20T02:00:28;101444.33;;;3.43;63.58
63691;BME280;49837;57.280;27.070;2023-04-20T02:01:28;101448.2;;;3.39;64.13
63691;BME280;49837;57.280;27.070;2023-04-20T02:02:29;101448.58;;;3.36;64.81
63691;BME280;49837;57.280;27.070;2023-04-20T02:03:29;101441.27;;;3.3;64.61
63691;BME280;49837;57.280;27.070;2023-04-20T02:04:29;101445.74;;;3.27;64.77
63691;BME280;49837;57.280;27.070;2023-04-20T02:05:30;101445.33;;;3.26;65.18
63691;BME280;49837;57.280;27.070;2023-04-20T02:06:30;101441.24;;;3.25;64.72
63691;BME280;49837;57.280;27.070;2023-04-20T02:07:30;101442.38;;;3.24;64.63
63691;BME280;49837;57.280;27.070;2023-04-20T02:08:31;101439.1;;;3.25;64.78
63691;BME280;49837;57.280;27.070;2023-04-20T02:09:31;101440.12;;;3.27;64.74
63691;BME280;49837;57.280;27.070;2023-04-20T02:10:32;101439.39;;;3.27;64.57
63691;BME280;49837;57.280;27.070;2023-04-20T02:11:32;101438.86;;;3.29;64.5
63691;BME280;49837;57.280;27.070;2023-04-20T02:12:32;101435.92;;;3.27;64.83
63691;BME280;49837;57.280;27.070;2023-04-20T02:13:33;101438.11;;;3.21;64.82
63691;BME280;49837;57.280;27.070;2023-04-20T02:14:33;101436.83;;;3.14;65.08
63691;BME280;49837;57.280;27.070;2023-04-20T02:15:33;101435.38;;;3.17;64.91
63691;BME280;49837;57.280;27.070;2023-04-20T02:16:34;101434.53;;;3.11;65.27
63691;BME280;49837;57.280;27.070;2023-04-20T02:17:34;101435.36;;;3.04;65.35
63691;BME280;49837;57.280;27.070;2023-04-20T02:18:34;101436.45;;;3.05;65.29
63691;BME280;49837;57.280;27.070;2023-04-20T02:19:35;101432.34;;;3.09;65.28
63691;BME280;49837;57.280;27.070;2023-04-20T02:20:35;101436.71;;;3.09;65.64
63691;BME280;49837;57.280;27.070;2023-04-20T02:21:35;101432.06;;;3.04;65.27
63691;BME280;49837;57.280;27.070;2023-04-20T02:22:36;101428.5;;;3.07;65.46
63691;BME280;49837;57.280;27.070;2023-04-20T02:23:36;101430.03;;;3.04;65.78
63691;BME280;49837;57.280;27.070;2023-04-20T02:24:36;101429.19;;;2.96;65.54
63691;BME280;49837;57.280;27.070;2023-04-20T02:25:37;101429.44;;;2.96;65.96
63691;BME280;49837;57.280;27.070;2023-04-20T02:26:37;101430.95;;;2.97;65.58
63691;BME280;49837;57.280;27.070;2023-04-20T02:27:38;101429.65;;;2.98;65.91
63691;BME280;49837;57.280;27.070;2023-04-20T02:28:38;101425.02;;;2.99;65.85
63691;BME280;49837;57.280;27.070;2023-04-20T02:29:38;101425.77;;;3.03;65.78
63691;BME280;49837;57.280;27.070;2023-04-20T02:30:39;101433.16;;;3.0;65.98
63691;BME280;49837;57.280;27.070;2023-04-20T02:31:39;101428.49;;;2.98;65.71
63691;BME280;49837;57.280;27.070;2023-04-20T02:32:39;101428.39;;;3.01;65.52
63691;BME280;49837;57.280;27.070;2023-04-20T02:33:40;101429.83;;;2.99;65.35
63691;BME280;49837;57.280;27.070;2023-04-20T02:34:40;101430.82;;;2.99;65.62
63691;BME280;49837;57.280;27.070;2023-04-20T02:35:40;101427.2;;;2.99;65.6
63691;BME280;49837;57.280;27.070;2023-04-20T02:36:41;101430.7;;;2.97;65.58
63691;BME280;49837;57.280;27.070;2023-04-20T02:37:42;101427.31;;;2.93;65.64
63691;BME280;49837;57.280;27.070;2023-04-20T02:38:41;101429.21;;;2.9;65.86
63691;BME280;49837;57.280;27.070;2023-04-20T02:39:42;101426.08;;;2.86;66.01
63691;BME280;49837;57.280;27.070;2023-04-20T02:40:42;101425.67;;;2.85;66.07
63691;BME280;49837;57.280;27.070;2023-04-20T02:41:42;101428.28;;;2.84;66.07
63691;BME280;49837;57.280;27.070;2023-04-20T02:42:43;101425.3;;;2.87;66.14
63691;BME280;49837;57.280;27.070;2023-04-20T02:43:43;101430.77;;;2.93;66.01
63691;BME280;49837;57.280;27.070;2023-04-20T02:44:43;101426.55;;;2.89;65.97
63691;BME280;49837;57.280;27.070;2023-04-20T02:45:44;101428.83;;;2.9;65.79
63691;BME280;49837;57.280;27.070;2023-04-20T02:46:44;101426.29;;;2.99;65.69
63691;BME280;49837;57.280;27.070;2023-04-20T02:47:44;101426.73;;;2.97;65.91
63691;BME280;49837;57.280;27.070;2023-04-20T02:48:45;101426.06;;;2.89;66.41
63691;BME280;49837;57.280;27.070;2023-04-20T02:49:45;101419.95;;;2.8;66.24
63691;BME280;49837;57.280;27.070;2023-04-20T02:50:45;101422.61;;;2.79;66.2
63691;BME280;49837;57.280;27.070;2023-04-20T02:51:46;101427.39;;;2.78;66.19
63691;BME280;49837;57.280;27.070;2023-04-20T02:52:46;101425.48;;;2.77;66.17
63691;BME280;49837;57.280;27.070;2023-04-20T02:53:47;101428.95;;;2.78;66.75
63691;BME280;49837;57.280;27.070;2023-04-20T02:54:47;101430.26;;;2.77;66.82
63691;BME280;49837;57.280;27.070;2023-04-20T02:55:47;101430.98;;;2.73;67.02
63691;BME280;49837;57.280;27.070;2023-04-20T02:56:47;101432.53;;;2.72;66.99
63691;BME280;49837;57.280;27.070;2023-04-20T02:57:48;101429.94;;;2.73;66.97
63691;BME280;49837;57.280;27.070;2023-04-20T02:58:49;101428.28;;;2.77;66.87
63691;BME280;49837;57.280;27.070;2023-04-20T02:59:49;101429.58;;;2.73;67.06
63691;BME280;49837;57.280;27.070;2023-04-20T03:00:49;101429.61;;;2.73;66.76
63691;BME280;49837;57.280;27.070;2023-04-20T03:01:49;101429.78;;;2.78;66.63
63691;BME280;49837;57.280;27.070;2023-04-20T03:02:50;101428.33;;;2.79;66.77
63691;BME280;49837;57.280;27.070;2023-04-20T03:03:50;101432.61;;;2.79;66.94
63691;BME280;49837;57.280;27.070;2023-04-20T03:04:50;101432.64;;;2.8;66.71
63691;BME280;49837;57.280;27.070;2023-04-20T03:05:51;101429.62;;;2.86;66.65
63691;BME280;49837;57.280;27.070;2023-04-20T03:06:51;101430.3;;;2.87;66.6
63691;BME280;49837;57.280;27.070;2023-04-20T03:07:51;101427.44;;;2.87;66.5
63691;BME280;49837;57.280;27.070;2023-04-20T03:08:52;101428.61;;;2.85;66.82
63691;BME280;49837;57.280;27.070;2023-04-20T03:09:52;101427.66;;;2.79;66.75
63691;BME280;49837;57.280;27.070;2023-04-20T03:10:52;101430.0;;;2.8;66.48
63691;BME280;49837;57.280;27.070;2023-04-20T03:11:53;101429.8;;;2.79;66.48
63691;BME280;49837;57.280;27.070;2023-04-20T03:12:53;101425.88;;;2.8;66.41
63691;BME280;49837;57.280;27.070;2023-04-20T03:13:53;101428.29;;;2.81;66.59
63691;BME280;49837;57.280;27.070;2023-04-20T03:14:54;101428.08;;;2.79;66.38
63691;BME280;49837;57.280;27.070;2023-04-20T03:15:54;101429.4;;;2.79;66.37
63691;BME280;49837;57.280;27.070;2023-04-20T03:16:54;101429.8;;;2.82;66.58
63691;BME280;49837;57.280;27.070;2023-04-20T03:17:55;101430.66;;;2.88;66.23
63691;BME280;49837;57.280;27.070;2023-04-20T03:18:55;101429.87;;;2.85;66.29
63691;BME280;49837;57.280;27.070;2023-04-20T03:19:56;101428.39;;;2.82;66.26
63691;BME280;49837;57.280;27.070;2023-04-20T03:20:56;101427.05;;;2.81;66.41
63691;BME280;49837;57.280;27.070;2023-04-20T03:21:56;101425.57;;;2.81;66.73
63691;BME280;49837;57.280;27.070;2023-04-20T03:22:57;101425.69;;;2.79;66.72
63691;BME280;49837;57.280;27.070;2023-04-20T03:23:57;101428.0;;;2.79;66.8
63691;BME280;49837;57.280;27.070;2023-04-20T03:24:58;101427.36;;;2.8;66.62
63691;BME280;49837;57.280;27.070;2023-04-20T03:25:58;101428.15;;;2.82;66.74
63691;BME280;49837;57.280;27.070;2023-04-20T03:26:58;101425.7;;;2.84;66.83
63691;BME280;49837;57.280;27.070;2023-04-20T03:27:58;101423.02;;;2.82;66.87
63691;BME280;49837;57.280;27.070;2023-04-20T03:28:59;101424.04;;;2.79;66.78
63691;BME280;49837;57.280;27.070;2023-04-20T03:29:59;101426.03;;;2.83;66.83
63691;BME280;49837;57.280;27.070;2023-04-20T03:30:59;101422.36;;;2.82;66.81
63691;BME280;49837;57.280;27.070;2023-04-20T03:32:00;101421.45;;;2.81;66.99
63691;BME280;49837;57.280;27.070;2023-04-20T03:33:00;101424.3;;;2.83;67.31
63691;BME280;49837;57.280;27.070;2023-04-20T03:34:00;101424.7;;;2.86;67.31
63691;BME280;49837;57.280;27.070;2023-04-20T03:35:01;101422.91;;;2.88;67.16
63691;BME280;49837;57.280;27.070;2023-04-20T03:36:01;101424.59;;;2.9;66.87
63691;BME280;49837;57.280;27.070;2023-04-20T03:37:01;101420.7;;;2.96;66.65
63691;BME280;49837;57.280;27.070;2023-04-20T03:38:02;101423.08;;;2.99;66.78
63691;BME280;49837;57.280;27.070;2023-04-20T03:39:02;101423.45;;;3.01;66.59
63691;BME280;49837;57.280;27.070;2023-04-20T03:40:03;101420.58;;;3.05;66.48
63691;BME280;49837;57.280;27.070;2023-04-20T03:41:03;101419.62;;;3.08;66.45
63691;BME280;49837;57.280;27.070;2023-04-20T03:42:03;101421.09;;;3.11;66.37
63691;BME280;49837;57.280;27.070;2023-04-20T03:43:04;101422.4;;;3.14;66.5
63691;BME280;49837;57.280;27.070;2023-04-20T03:44:04;101423.32;;;3.16;66.64
63691;BME280;49837;57.280;27.070;2023-04-20T03:45:05;101424.0;;;3.17;66.67
63691;BME280;49837;57.280;27.070;2023-04-20T03:46:05;101423.52;;;3.2;66.47
63691;BME280;49837;57.280;27.070;2023-04-20T03:47:05;101426.81;;;3.2;66.88
63691;BME280;49837;57.280;27.070;2023-04-20T03:48:05;101428.94;;;3.24;66.51
63691;BME280;49837;57.280;27.070;2023-04-20T03:49:06;101428.47;;;3.29;66.19
63691;BME280;49837;57.280;27.070;2023-04-20T03:50:07;101427.21;;;3.28;66.31
63691;BME280;49837;57.280;27.070;2023-04-20T03:51:06;101427.87;;;3.28;66.43
63691;BME280;49837;57.280;27.070;2023-04-20T03:52:07;101425.05;;;3.26;66.58
63691;BME280;49837;57.280;27.070;2023-04-20T03:53:07;101426.04;;;3.31;66.46
63691;BME280;49837;57.280;27.070;2023-04-20T03:54:08;101427.11;;;3.35;66.41
63691;BME280;49837;57.280;27.070;2023-04-20T03:55:08;101424.53;;;3.38;66.27
63691;BME280;49837;57.280;27.070;2023-04-20T03:56:08;101424.92;;;3.42;66.33
63691;BME280;49837;57.280;27.070;2023-04-20T03:57:09;101424.09;;;3.45;66.04
63691;BME280;49837;57.280;27.070;2023-04-20T03:58:09;101424.52;;;3.46;66.03
63691;BME280;49837;57.280;27.070;2023-04-20T03:59:09;101426.25;;;3.5;65.96
63691;BME280;49837;57.280;27.070;2023-04-20T04:00:11;101424.2;;;3.51;66.02
63691;BME280;49837;57.280;27.070;2023-04-20T04:01:10;101423.86;;;3.54;66.1
63691;BME280;49837;57.280;27.070;2023-04-20T04:02:10;101428.94;;;3.58;66.03
63691;BME280;49837;57.280;27.070;2023-04-20T04:03:11;101429.23;;;3.64;65.89
63691;BME280;49837;57.280;27.070;2023-04-20T04:04:11;101427.66;;;3.69;65.44
63691;BME280;49837;57.280;27.070;2023-04-20T04:05:11;101427.94;;;3.75;65.5
63691;BME280;49837;57.280;27.070;2023-04-20T04:06:12;101431.69;;;3.77;65.47
63691;BME280;49837;57.280;27.070;2023-04-20T04:07:12;101425.77;;;3.78;65.43
63691;BME280;49837;57.280;27.070;2023-04-20T04:08:12;101424.57;;;3.8;65.3
63691;BME280;49837;57.280;27.070;2023-04-20T04:09:13;101426.8;;;3.79;65.58
63691;BME280;49837;57.280;27.070;2023-04-20T04:10:13;101426.19;;;3.83;65.53
63691;BME280;49837;57.280;27.070;2023-04-20T04:11:13;101428.16;;;3.91;65.36
63691;BME280;49837;57.280;27.070;2023-04-20T04:12:14;101428.5;;;3.96;65.17
63691;BME280;49837;57.280;27.070;2023-04-20T04:13:14;101425.33;;;4.04;64.49
63691;BME280;49837;57.280;27.070;2023-04-20T04:14:15;101428.11;;;4.09;64.41
63691;BME280;49837;57.280;27.070;2023-04-20T04:15:15;101426.34;;;4.16;64.27
63691;BME280;49837;57.280;27.070;2023-04-20T04:16:15;101427.2;;;4.18;64.17
63691;BME280;49837;57.280;27.070;2023-04-20T04:17:16;101429.05;;;4.24;63.9
63691;BME280;49837;57.280;27.070;2023-04-20T04:18:16;101430.42;;;4.24;64.19
63691;BME280;49837;57.280;27.070;2023-04-20T04:19:16;101429.31;;;4.25;63.89
63691;BME280;49837;57.280;27.070;2023-04-20T04:20:17;101431.82;;;4.33;63.52
63691;BME280;49837;57.280;27.070;2023-04-20T04:21:17;101433.53;;;4.37;63.27
63691;BME280;49837;57.280;27.070;2023-04-20T04:22:17;101433.67;;;4.4;63.71
63691;BME280;49837;57.280;27.070;2023-04-20T04:23:18;101434.45;;;4.42;63.73
63691;BME280;49837;57.280;27.070;2023-04-20T04:24:18;101434.78;;;4.42;63.82
63691;BME280;49837;57.280;27.070;2023-04-20T04:25:19;101436.71;;;4.44;63.62
63691;BME280;49837;57.280;27.070;2023-04-20T04:26:19;101436.44;;;4.52;63.33
63691;BME280;49837;57.280;27.070;2023-04-20T04:27:19;101434.03;;;4.58;63.33
63691;BME280;49837;57.280;27.070;2023-04-20T04:28:20;101435.63;;;4.65;62.31
63691;BME280;49837;57.280;27.070;2023-04-20T04:29:20;101436.14;;;4.67;63.02
63691;BME280;49837;57.280;27.070;2023-04-20T04:30:20;101439.5;;;4.69;63.22
63691;BME280;49837;57.280;27.070;2023-04-20T04:31:21;101440.93;;;4.72;63.55
63691;BME280;49837;57.280;27.070;2023-04-20T04:32:22;101439.33;;;4.75;63.21
63691;BME280;49837;57.280;27.070;2023-04-20T04:33:21;101434.98;;;4.78;63.17
63691;BME280;49837;57.280;27.070;2023-04-20T04:34:22;101437.16;;;4.86;62.67
63691;BME280;49837;57.280;27.070;2023-04-20T04:35:22;101439.84;;;4.94;62.03
63691;BME280;49837;57.280;27.070;2023-04-20T04:36:22;101436.69;;;5.01;61.74
63691;BME280;49837;57.280;27.070;2023-04-20T04:37:23;101438.11;;;5.02;61.85
63691;BME280;49837;57.280;27.070;2023-04-20T04:38:23;101441.06;;;5.06;61.34
63691;BME280;49837;57.280;27.070;2023-04-20T04:39:25;101438.09;;;5.13;60.73
63691;BME280;49837;57.280;27.070;2023-04-20T04:40:24;101437.86;;;5.15;60.76
63691;BME280;49837;57.280;27.070;2023-04-20T04:41:24;101435.34;;;5.18;60.65
63691;BME280;49837;57.280;27.070;2023-04-20T04:42:25;101439.84;;;5.21;61.12
63691;BME280;49837;57.280;27.070;2023-04-20T04:43:26;101439.14;;;5.24;60.82
63691;BME280;49837;57.280;27.070;2023-04-20T04:44:25;101437.74;;;5.25;60.47
63691;BME280;49837;57.280;27.070;2023-04-20T04:45:26;101439.56;;;5.32;59.91
63691;BME280;49837;57.280;27.070;2023-04-20T04:46:26;101440.32;;;5.4;59.06
63691;BME280;49837;57.280;27.070;2023-04-20T04:47:27;101439.65;;;5.47;58.82
63691;BME280;49837;57.280;27.070;2023-04-20T04:48:27;101441.45;;;5.51;58.54
63691;BME280;49837;57.280;27.070;2023-04-20T04:49:27;101441.72;;;5.52;59.1
63691;BME280;49837;57.280;27.070;2023-04-20T04:50:28;101442.14;;;5.55;59.93
63691;BME280;49837;57.280;27.070;2023-04-20T04:51:28;101443.47;;;5.55;59.87
63691;BME280;49837;57.280;27.070;2023-04-20T04:52:29;101442.45;;;5.5;58.65
63691;BME280;49837;57.280;27.070;2023-04-20T04:53:29;101442.22;;;5.54;59.26
63691;BME280;49837;57.280;27.070;2023-04-20T04:54:29;101442.83;;;5.57;59.29
63691;BME280;49837;57.280;27.070;2023-04-20T04:55:29;101436.19;;;5.62;58.21
63691;BME280;49837;57.280;27.070;2023-04-20T04:56:30;101438.08;;;5.7;58.96
63691;BME280;49837;57.280;27.070;2023-04-20T04:57:30;101441.87;;;5.68;59.03
63691;BME280;49837;57.280;27.070;2023-04-20T04:58:31;101441.01;;;5.7;58.19
63691;BME280;49837;57.280;27.070;2023-04-20T04:59:31;101438.61;;;5.71;58.86
63691;BME280;49837;57.280;27.070;2023-04-20T05:00:31;101438.73;;;5.76;59.02
63691;BME280;49837;57.280;27.070;2023-04-20T05:01:32;101438.75;;;5.78;58.9
63691;BME280;49837;57.280;27.070;2023-04-20T05:02:32;101437.41;;;5.83;59.06
63691;BME280;49837;57.280;27.070;2023-04-20T05:03:33;101439.55;;;5.89;58.68
63691;BME280;49837;57.280;27.070;2023-04-20T05:04:33;101442.56;;;5.93;57.75
63691;BME280;49837;57.280;27.070;2023-04-20T05:05:33;101439.43;;;5.96;57.89
63691;BME280;49837;57.280;27.070;2023-04-20T05:06:33;101442.16;;;6.01;57.37
63691;BME280;49837;57.280;27.070;2023-04-20T05:07:34;101444.47;;;6.02;56.88
63691;BME280;49837;57.280;27.070;2023-04-20T05:08:34;101441.96;;;6.05;57.45
63691;BME280;49837;57.280;27.070;2023-04-20T05:09:36;101439.48;;;6.07;58.41
63691;BME280;49837;57.280;27.070;2023-04-20T05:10:35;101445.39;;;6.09;57.7
63691;BME280;49837;57.280;27.070;2023-04-20T05:11:35;101441.08;;;6.08;58.53
63691;BME280;49837;57.280;27.070;2023-04-20T05:12:38;101441.52;;;6.13;57.32
63691;BME280;49837;57.280;27.070;2023-04-20T05:13:36;101441.88;;;6.16;57.08
63691;BME280;49837;57.280;27.070;2023-04-20T05:14:37;101443.53;;;6.24;57.29
63691;BME280;49837;57.280;27.070;2023-04-20T05:15:37;101442.62;;;6.34;56.72
63691;BME280;49837;57.280;27.070;2023-04-20T05:16:37;101439.66;;;6.38;57.38
63691;BME280;49837;57.280;27.070;2023-04-20T05:17:38;101440.84;;;6.43;55.56